sensor_id;sensor_type;location;lat;lon;timestamp;temperature;humidity
16128;DHT22;8168;49.036;7.690;2023-02-02T00:02:13;6.60;99.90
16128;DHT22;8168;49.036;7.690;2023-02-02T00:04:43;6.60;99.90
16128;DHT22;8168;49.036;7.690;2023-02-02T00:07:14;6.60;99.90
16128;DHT22;8168;49.036;7.690;2023-02-02T00:09:45;6.60;99.90
16128;DHT22;8168;49.036;7.690;2023-02-02T00:12:15;6.60;99.90
16128;DHT22;8168;49.036;7.690;2023-02-02T00:14:46;6.70;99.90
16128;DHT22;8168;49.036;7.690;2023-02-02T00:17:16;7.10;99.90
16128;DHT22;8168;49.036;7.690;2023-02-02T00:19:47;7.00;99.90
16128;DHT22;8168;49.036;7.690;2023-02-02T00:22:18;6.70;99.90
16128;DHT22;8168;49.036;7.690;2023-02-02T00:24:48;7.20;99.90
16128;DHT22;8168;49.036;7.690;2023-02-02T00:27:19;6.80;99.90
16128;DHT22;8168;49.036;7.690;2023-02-02T00:29:50;6.70;99.90
16128;DHT22;8168;49.036;7.690;2023-02-02T00:32:23;7.00;99.90
16128;DHT22;8168;49.036;7.690;2023-02-02T00:34:53;6.70;99.90
16128;DHT22;8168;49.036;7.690;2023-02-02T00:37:24;6.70;99.90
16128;DHT22;8168;49.036;7.690;2023-02-02T00:39:54;6.70;99.90
16128;DHT22;8168;49.036;7.690;2023-02-02T00:42:25;6.80;99.90
16128;DHT22;8168;49.036;7.690;2023-02-02T00:44:55;7.20;99.90
16128;DHT22;8168;49.036;7.690;2023-02-02T00:47:47;6.70;99.90
16128;DHT22;8168;49.036;7.690;2023-02-02T00:50:19;6.80;99.90
16128;DHT22;8168;49.036;7.690;2023-02-02T00:52:50;6.80;99.90
16128;DHT22;8168;49.036;7.690;2023-02-02T00:55:21;6.70;99.90
16128;DHT22;8168;49.036;7.690;2023-02-02T00:57:52;6.70;99.90
16128;DHT22;8168;49.036;7.690;2023-02-02T01:00:25;6.80;99.90
16128;DHT22;8168;49.036;7.690;2023-02-02T01:02:55;7.00;99.90
16128;DHT22;8168;49.036;7.690;2023-02-02T01:05:27;6.80;99.90
16128;DHT22;8168;49.036;7.690;2023-02-02T01:07:57;6.80;99.90
16128;DHT22;8168;49.036;7.690;2023-02-02T01:10:28;6.80;99.90
16128;DHT22;8168;49.036;7.690;2023-02-02T01:13:02;6.70;99.90
16128;DHT22;8168;49.036;7.690;2023-02-02T01:15:33;6.70;99.90
16128;DHT22;8168;49.036;7.690;2023-02-02T01:18:03;6.80;99.90
16128;DHT22;8168;49.036;7.690;2023-02-02T01:20:34;6.70;99.90
16128;DHT22;8168;49.036;7.690;2023-02-02T01:23:05;6.80;99.90
16128;DHT22;8168;49.036;7.690;2023-02-02T01:25:35;6.80;99.90
16128;DHT22;8168;49.036;7.690;2023-02-02T01:28:07;6.80;99.90
16128;DHT22;8168;49.036;7.690;2023-02-02T01:30:38;6.90;99.90
16128;DHT22;8168;49.036;7.690;2023-02-02T01:33:08;6.90;99.90
16128;DHT22;8168;49.036;7.690;2023-02-02T01:35:47;7.00;99.90
16128;DHT22;8168;49.036;7.690;2023-02-02T01:38:18;6.80;99.90
16128;DHT22;8168;49.036;7.690;2023-02-02T01:40:54;6.80;99.90
16128;DHT22;8168;49.036;7.690;2023-02-02T01:46:25;6.70;99.90
16128;DHT22;8168;49.036;7.690;2023-02-02T01:49:08;6.70;99.90
16128;DHT22;8168;49.036;7.690;2023-02-02T01:51:51;6.70;99.90
16128;DHT22;8168;49.036;7.690;2023-02-02T01:54:38;6.70;99.90
16128;DHT22;8168;49.036;7.690;2023-02-02T01:57:16;6.70;99.90
16128;DHT22;8168;49.036;7.690;2023-02-02T01:59:49;7.00;99.90
16128;DHT22;8168;49.036;7.690;2023-02-02T02:02:21;6.60;99.90
16128;DHT22;8168;49.036;7.690;2023-02-02T02:04:53;6.60;99.90
16128;DHT22;8168;49.036;7.690;2023-02-02T02:07:24;6.60;99.90
16128;DHT22;8168;49.036;7.690;2023-02-02T02:09:55;6.60;99.90
16128;DHT22;8168;49.036;7.690;2023-02-02T02:12:25;6.80;99.90
16128;DHT22;8168;49.036;7.690;2023-02-02T02:14:56;6.60;99.90
16128;DHT22;8168;49.036;7.690;2023-02-02T02:35:40;6.60;99.90
16128;DHT22;8168;49.036;7.690;2023-02-02T02:38:35;6.70;99.90
16128;DHT22;8168;49.036;7.690;2023-02-02T02:41:11;6.70;99.90
16128;DHT22;8168;49.036;7.690;2023-02-02T02:43:48;7.20;99.90
16128;DHT22;8168;49.036;7.690;2023-02-02T02:46:21;7.10;99.90
16128;DHT22;8168;49.036;7.690;2023-02-02T02:48:52;6.70;99.90
16128;DHT22;8168;49.036;7.690;2023-02-02T02:51:44;6.80;99.90
16128;DHT22;8168;49.036;7.690;2023-02-02T03:11:15;6.70;99.90
16128;DHT22;8168;49.036;7.690;2023-02-02T03:13:47;6.70;99.90
16128;DHT22;8168;49.036;7.690;2023-02-02T03:16:18;6.70;99.90
16128;DHT22;8168;49.036;7.690;2023-02-02T03:18:48;7.00;99.90
16128;DHT22;8168;49.036;7.690;2023-02-02T03:21:19;6.70;99.90
16128;DHT22;8168;49.036;7.690;2023-02-02T03:23:50;6.70;99.90
16128;DHT22;8168;49.036;7.690;2023-02-02T03:26:20;6.70;99.90
16128;DHT22;8168;49.036;7.690;2023-02-02T03:28:52;6.80;99.90
16128;DHT22;8168;49.036;7.690;2023-02-02T03:31:26;6.90;99.90
16128;DHT22;8168;49.036;7.690;2023-02-02T03:33:57;6.70;99.90
16128;DHT22;8168;49.036;7.690;2023-02-02T03:36:28;6.80;99.90
16128;DHT22;8168;49.036;7.690;2023-02-02T03:38:58;6.80;99.90
16128;DHT22;8168;49.036;7.690;2023-02-02T03:41:29;7.10;99.90
16128;DHT22;8168;49.036;7.690;2023-02-02T03:44:00;7.30;99.90
16128;DHT22;8168;49.036;7.690;2023-02-02T03:46:30;6.80;99.90
16128;DHT22;8168;49.036;7.690;2023-02-02T03:49:01;6.80;99.90
16128;DHT22;8168;49.036;7.690;2023-02-02T03:51:31;6.80;99.90
16128;DHT22;8168;49.036;7.690;2023-02-02T03:54:03;6.80;99.90
16128;DHT22;8168;49.036;7.690;2023-02-02T03:56:34;6.80;99.90
16128;DHT22;8168;49.036;7.690;2023-02-02T03:59:04;7.30;99.90
16128;DHT22;8168;49.036;7.690;2023-02-02T04:01:35;6.80;99.90
16128;DHT22;8168;49.036;7.690;2023-02-02T04:04:06;6.80;99.90
16128;DHT22;8168;49.036;7.690;2023-02-02T04:06:36;6.80;99.90
16128;DHT22;8168;49.036;7.690;2023-02-02T04:09:10;6.90;99.90
16128;DHT22;8168;49.036;7.690;2023-02-02T04:11:41;6.70;99.90
16128;DHT22;8168;49.036;7.690;2023-02-02T04:14:11;6.80;99.90
16128;DHT22;8168;49.036;7.690;2023-02-02T04:16:42;6.80;99.90
16128;DHT22;8168;49.036;7.690;2023-02-02T04:19:12;6.80;99.90
16128;DHT22;8168;49.036;7.690;2023-02-02T04:21:43;6.80;99.90
16128;DHT22;8168;49.036;7.690;2023-02-02T04:24:14;6.80;99.90
16128;DHT22;8168;49.036;7.690;2023-02-02T04:26:45;6.80;99.90
16128;DHT22;8168;49.036;7.690;2023-02-02T04:29:15;6.80;99.90
16128;DHT22;8168;49.036;7.690;2023-02-02T04:31:46;6.90;99.90
16128;DHT22;8168;49.036;7.690;2023-02-02T04:34:16;7.20;99.90
16128;DHT22;8168;49.036;7.690;2023-02-02T04:36:47;6.90;99.90
16128;DHT22;8168;49.036;7.690;2023-02-02T04:39:18;6.90;99.90
16128;DHT22;8168;49.036;7.690;2023-02-02T04:41:48;6.80;99.90
16128;DHT22;8168;49.036;7.690;2023-02-02T04:44:19;6.80;99.90
16128;DHT22;8168;49.036;7.690;2023-02-02T04:46:49;6.80;99.90
16128;DHT22;8168;49.036;7.690;2023-02-02T04:49:20;6.80;99.90
16128;DHT22;8168;49.036;7.690;2023-02-02T04:51:51;6.80;99.90
16128;DHT22;8168;49.036;7.690;2023-02-02T04:54:21;6.80;99.90
16128;DHT22;8168;49.036;7.690;2023-02-02T04:56:52;6.80;99.90
16128;DHT22;8168;49.036;7.690;2023-02-02T04:59:23;6.80;99.90
16128;DHT22;8168;49.036;7.690;2023-02-02T05:01:53;6.80;99.90
16128;DHT22;8168;49.036;7.690;2023-02-02T05:04:24;6.80;99.90
16128;DHT22;8168;49.036;7.690;2023-02-02T05:06:54;6.80;99.90
16128;DHT22;8168;49.036;7.690;2023-02-02T05:09:25;6.80;99.90
16128;DHT22;8168;49.036;7.690;2023-02-02T05:11:56;6.80;99.90
16128;DHT22;8168;49.036;7.690;2023-02-02T05:14:26;6.80;99.90
16128;DHT22;8168;49.036;7.690;2023-02-02T05:16:57;7.10;99.90
16128;DHT22;8168;49.036;7.690;2023-02-02T05:19:27;6.80;99.90
16128;DHT22;8168;49.036;7.690;2023-02-02T05:21:58;7.20;99.90
16128;DHT22;8168;49.036;7.690;2023-02-02T05:24:29;7.10;99.90
16128;DHT22;8168;49.036;7.690;2023-02-02T05:27:00;6.80;99.90
16128;DHT22;8168;49.036;7.690;2023-02-02T05:29:30;6.90;99.90
16128;DHT22;8168;49.036;7.690;2023-02-02T05:32:01;6.80;99.90
16128;DHT22;8168;49.036;7.690;2023-02-02T05:34:31;7.00;99.90
16128;DHT22;8168;49.036;7.690;2023-02-02T05:37:02;6.90;99.90
16128;DHT22;8168;49.036;7.690;2023-02-02T05:39:33;7.20;99.90
16128;DHT22;8168;49.036;7.690;2023-02-02T05:42:03;7.00;99.90
16128;DHT22;8168;49.036;7.690;2023-02-02T05:44:34;6.80;99.90
16128;DHT22;8168;49.036;7.690;2023-02-02T05:47:04;6.80;99.90
16128;DHT22;8168;49.036;7.690;2023-02-02T05:49:35;7.00;99.90
16128;DHT22;8168;49.036;7.690;2023-02-02T05:52:06;6.80;99.90
16128;DHT22;8168;49.036;7.690;2023-02-02T05:54:36;6.80;99.90
16128;DHT22;8168;49.036;7.690;2023-02-02T05:57:07;6.80;99.90
16128;DHT22;8168;49.036;7.690;2023-02-02T05:59:37;6.80;99.90
16128;DHT22;8168;49.036;7.690;2023-02-02T06:02:08;7.30;99.90
16128;DHT22;8168;49.036;7.690;2023-02-02T06:04:39;7.00;99.90
16128;DHT22;8168;49.036;7.690;2023-02-02T06:07:09;6.80;99.90
16128;DHT22;8168;49.036;7.690;2023-02-02T06:09:40;6.90;99.90
16128;DHT22;8168;49.036;7.690;2023-02-02T06:12:11;6.80;99.90
16128;DHT22;8168;49.036;7.690;2023-02-02T06:14:41;6.80;99.90
16128;DHT22;8168;49.036;7.690;2023-02-02T06:17:12;6.80;99.90
16128;DHT22;8168;49.036;7.690;2023-02-02T06:19:42;6.80;99.90
16128;DHT22;8168;49.036;7.690;2023-02-02T06:22:13;6.90;99.90
16128;DHT22;8168;49.036;7.690;2023-02-02T06:24:44;6.80;99.90
16128;DHT22;8168;49.036;7.690;2023-02-02T06:27:14;6.90;99.90
16128;DHT22;8168;49.036;7.690;2023-02-02T06:29:45;6.90;99.90
16128;DHT22;8168;49.036;7.690;2023-02-02T06:32:15;6.80;99.90
16128;DHT22;8168;49.036;7.690;2023-02-02T06:34:46;6.80;99.90
16128;DHT22;8168;49.036;7.690;2023-02-02T06:37:16;6.80;99.90
16128;DHT22;8168;49.036;7.690;2023-02-02T06:39:47;6.80;99.90
16128;DHT22;8168;49.036;7.690;2023-02-02T06:42:18;7.00;99.90
16128;DHT22;8168;49.036;7.690;2023-02-02T06:44:48;6.90;99.90
16128;DHT22;8168;49.036;7.690;2023-02-02T06:47:19;6.80;99.90
16128;DHT22;8168;49.036;7.690;2023-02-02T06:49:49;6.80;99.90
16128;DHT22;8168;49.036;7.690;2023-02-02T06:52:20;6.80;99.90
16128;DHT22;8168;49.036;7.690;2023-02-02T06:54:51;6.80;99.90
16128;DHT22;8168;49.036;7.690;2023-02-02T06:57:21;6.80;99.90
16128;DHT22;8168;49.036;7.690;2023-02-02T06:59:52;6.80;99.90
16128;DHT22;8168;49.036;7.690;2023-02-02T07:02:22;7.10;99.90
16128;DHT22;8168;49.036;7.690;2023-02-02T07:04:53;6.70;99.90
16128;DHT22;8168;49.036;7.690;2023-02-02T07:07:24;7.20;99.90
16128;DHT22;8168;49.036;7.690;2023-02-02T07:09:54;6.80;99.90
16128;DHT22;8168;49.036;7.690;2023-02-02T07:12:25;6.80;99.90
16128;DHT22;8168;49.036;7.690;2023-02-02T07:14:56;7.00;99.90
16128;DHT22;8168;49.036;7.690;2023-02-02T07:17:28;7.00;99.90
16128;DHT22;8168;49.036;7.690;2023-02-02T07:19:59;6.80;99.90
16128;DHT22;8168;49.036;7.690;2023-02-02T07:22:29;6.80;99.90
16128;DHT22;8168;49.036;7.690;2023-02-02T07:25:00;6.90;99.90
16128;DHT22;8168;49.036;7.690;2023-02-02T07:27:31;6.80;99.90
16128;DHT22;8168;49.036;7.690;2023-02-02T07:30:02;7.20;99.90
16128;DHT22;8168;49.036;7.690;2023-02-02T07:32:33;6.80;99.90
16128;DHT22;8168;49.036;7.690;2023-02-02T07:35:04;6.80;99.90
16128;DHT22;8168;49.036;7.690;2023-02-02T07:37:35;6.90;99.90
16128;DHT22;8168;49.036;7.690;2023-02-02T07:40:06;6.80;99.90
16128;DHT22;8168;49.036;7.690;2023-02-02T07:42:37;6.80;99.90
16128;DHT22;8168;49.036;7.690;2023-02-02T07:45:08;6.90;99.90
16128;DHT22;8168;49.036;7.690;2023-02-02T07:47:38;6.80;99.90
16128;DHT22;8168;49.036;7.690;2023-02-02T07:50:09;6.80;99.90
16128;DHT22;8168;49.036;7.690;2023-02-02T07:52:40;6.80;99.90
16128;DHT22;8168;49.036;7.690;2023-02-02T07:55:10;6.80;99.90
16128;DHT22;8168;49.036;7.690;2023-02-02T07:57:41;6.80;99.90
16128;DHT22;8168;49.036;7.690;2023-02-02T08:00:12;6.90;99.90
16128;DHT22;8168;49.036;7.690;2023-02-02T08:02:43;6.90;99.90
16128;DHT22;8168;49.036;7.690;2023-02-02T08:05:13;7.40;99.90
16128;DHT22;8168;49.036;7.690;2023-02-02T08:07:45;6.80;99.90
16128;DHT22;8168;49.036;7.690;2023-02-02T08:10:16;6.90;99.90
16128;DHT22;8168;49.036;7.690;2023-02-02T08:12:46;6.90;99.90
16128;DHT22;8168;49.036;7.690;2023-02-02T08:15:17;7.00;99.90
16128;DHT22;8168;49.036;7.690;2023-02-02T08:17:47;7.30;99.90
16128;DHT22;8168;49.036;7.690;2023-02-02T08:20:19;6.90;99.90
16128;DHT22;8168;49.036;7.690;2023-02-02T08:22:49;6.90;99.90
16128;DHT22;8168;49.036;7.690;2023-02-02T08:25:20;7.30;99.90
16128;DHT22;8168;49.036;7.690;2023-02-02T08:27:55;6.90;99.90
16128;DHT22;8168;49.036;7.690;2023-02-02T08:30:28;6.90;99.90
16128;DHT22;8168;49.036;7.690;2023-02-02T08:32:58;6.90;99.90
16128;DHT22;8168;49.036;7.690;2023-02-02T08:35:29;7.20;99.90
16128;DHT22;8168;49.036;7.690;2023-02-02T08:37:59;6.90;99.90
16128;DHT22;8168;49.036;7.690;2023-02-02T08:40:34;7.00;99.90
16128;DHT22;8168;49.036;7.690;2023-02-02T08:43:05;7.40;99.90
16128;DHT22;8168;49.036;7.690;2023-02-02T08:45:36;7.10;99.90
16128;DHT22;8168;49.036;7.690;2023-02-02T08:48:06;6.90;99.90
16128;DHT22;8168;49.036;7.690;2023-02-02T08:50:37;7.00;99.90
16128;DHT22;8168;49.036;7.690;2023-02-02T08:53:08;7.00;99.90
16128;DHT22;8168;49.036;7.690;2023-02-02T08:55:39;7.00;99.90
16128;DHT22;8168;49.036;7.690;2023-02-02T08:58:09;7.00;99.90
16128;DHT22;8168;49.036;7.690;2023-02-02T09:00:40;7.30;99.90
16128;DHT22;8168;49.036;7.690;2023-02-02T09:03:10;7.30;99.90
16128;DHT22;8168;49.036;7.690;2023-02-02T09:05:41;7.00;99.90
16128;DHT22;8168;49.036;7.690;2023-02-02T09:08:12;7.30;99.90
16128;DHT22;8168;49.036;7.690;2023-02-02T09:10:42;7.00;99.90
16128;DHT22;8168;49.036;7.690;2023-02-02T09:13:13;7.00;99.90
16128;DHT22;8168;49.036;7.690;2023-02-02T09:15:43;7.10;99.90
16128;DHT22;8168;49.036;7.690;2023-02-02T09:18:14;7.00;99.90
16128;DHT22;8168;49.036;7.690;2023-02-02T09:20:44;7.00;99.90
16128;DHT22;8168;49.036;7.690;2023-02-02T09:23:15;7.00;99.90
16128;DHT22;8168;49.036;7.690;2023-02-02T09:25:46;7.00;99.90
16128;DHT22;8168;49.036;7.690;2023-02-02T09:28:16;7.00;99.90
16128;DHT22;8168;49.036;7.690;2023-02-02T09:30:47;7.10;99.90
16128;DHT22;8168;49.036;7.690;2023-02-02T09:33:18;7.10;99.90
16128;DHT22;8168;49.036;7.690;2023-02-02T09:35:49;7.10;99.90
16128;DHT22;8168;49.036;7.690;2023-02-02T09:38:19;7.10;99.90
16128;DHT22;8168;49.036;7.690;2023-02-02T09:40:50;7.10;99.90
16128;DHT22;8168;49.036;7.690;2023-02-02T09:44:26;7.20;99.90
16128;DHT22;8168;49.036;7.690;2023-02-02T09:49:11;7.20;99.90
16128;DHT22;8168;49.036;7.690;2023-02-02T09:51:48;7.20;99.90
16128;DHT22;8168;49.036;7.690;2023-02-02T09:54:34;7.20;99.90
16128;DHT22;8168;49.036;7.690;2023-02-02T09:57:14;7.20;99.90
16128;DHT22;8168;49.036;7.690;2023-02-02T09:59:49;7.20;99.90
16128;DHT22;8168;49.036;7.690;2023-02-02T10:05:15;7.30;99.90
16128;DHT22;8168;49.036;7.690;2023-02-02T10:07:52;7.80;99.90
16128;DHT22;8168;49.036;7.690;2023-02-02T10:10:27;7.80;99.90
16128;DHT22;8168;49.036;7.690;2023-02-02T10:13:04;7.30;99.90
16128;DHT22;8168;49.036;7.690;2023-02-02T10:19:02;7.40;99.90
16128;DHT22;8168;49.036;7.690;2023-02-02T10:24:19;7.30;99.90
16128;DHT22;8168;49.036;7.690;2023-02-02T10:26:53;7.40;99.90
16128;DHT22;8168;49.036;7.690;2023-02-02T10:46:39;7.40;99.90
16128;DHT22;8168;49.036;7.690;2023-02-02T10:52:24;7.40;99.90
16128;DHT22;8168;49.036;7.690;2023-02-02T11:00:56;7.40;99.90
16128;DHT22;8168;49.036;7.690;2023-02-02T11:03:30;7.50;99.90
16128;DHT22;8168;49.036;7.690;2023-02-02T11:06:03;7.50;99.90
16128;DHT22;8168;49.036;7.690;2023-02-02T11:08:53;7.50;99.90
16128;DHT22;8168;49.036;7.690;2023-02-02T11:11:39;7.60;99.90
16128;DHT22;8168;49.036;7.690;2023-02-02T11:14:17;7.50;99.90
16128;DHT22;8168;49.036;7.690;2023-02-02T11:17:03;7.50;99.90
16128;DHT22;8168;49.036;7.690;2023-02-02T11:19:35;7.60;99.90
16128;DHT22;8168;49.036;7.690;2023-02-02T11:22:35;7.50;99.90
16128;DHT22;8168;49.036;7.690;2023-02-02T11:25:25;7.60;99.90
16128;DHT22;8168;49.036;7.690;2023-02-02T11:27:56;7.50;99.90
16128;DHT22;8168;49.036;7.690;2023-02-02T11:30:32;5.80;99.90
16128;DHT22;8168;49.036;7.690;2023-02-02T11:33:29;7.60;99.90
16128;DHT22;8168;49.036;7.690;2023-02-02T11:36:03;7.60;99.90
16128;DHT22;8168;49.036;7.690;2023-02-02T11:38:34;7.60;99.90
16128;DHT22;8168;49.036;7.690;2023-02-02T11:41:08;7.90;99.90
16128;DHT22;8168;49.036;7.690;2023-02-02T11:43:52;7.60;99.90
16128;DHT22;8168;49.036;7.690;2023-02-02T11:46:29;7.80;99.90
16128;DHT22;8168;49.036;7.690;2023-02-02T11:49:11;7.60;99.90
16128;DHT22;8168;49.036;7.690;2023-02-02T11:52:05;7.50;99.90
16128;DHT22;8168;49.036;7.690;2023-02-02T11:54:37;7.50;99.90
16128;DHT22;8168;49.036;7.690;2023-02-02T11:57:09;7.80;99.90
16128;DHT22;8168;49.036;7.690;2023-02-02T11:59:41;7.50;99.90
16128;DHT22;8168;49.036;7.690;2023-02-02T12:04:55;7.50;99.90
16128;DHT22;8168;49.036;7.690;2023-02-02T12:07:31;7.50;99.90
16128;DHT22;8168;49.036;7.690;2023-02-02T12:10:26;7.50;99.90
16128;DHT22;8168;49.036;7.690;2023-02-02T12:24:33;7.40;99.90
16128;DHT22;8168;49.036;7.690;2023-02-02T12:41:48;7.60;99.90
16128;DHT22;8168;49.036;7.690;2023-02-02T12:50:30;7.60;99.90
16128;DHT22;8168;49.036;7.690;2023-02-02T12:56:15;7.70;99.90
16128;DHT22;8168;49.036;7.690;2023-02-02T13:02:03;7.70;99.90
16128;DHT22;8168;49.036;7.690;2023-02-02T13:07:48;7.80;99.90
16128;DHT22;8168;49.036;7.690;2023-02-02T13:10:25;7.80;99.90
16128;DHT22;8168;49.036;7.690;2023-02-02T13:15:45;7.80;99.90
16128;DHT22;8168;49.036;7.690;2023-02-02T13:18:23;7.80;99.90
16128;DHT22;8168;49.036;7.690;2023-02-02T13:20:59;7.80;99.90
16128;DHT22;8168;49.036;7.690;2023-02-02T13:23:45;7.80;99.90
16128;DHT22;8168;49.036;7.690;2023-02-02T13:26:25;7.80;99.90
16128;DHT22;8168;49.036;7.690;2023-02-02T13:51:53;8.00;99.90
16128;DHT22;8168;49.036;7.690;2023-02-02T14:00:45;7.90;99.90
16128;DHT22;8168;49.036;7.690;2023-02-02T14:08:44;7.90;99.90
16128;DHT22;8168;49.036;7.690;2023-02-02T14:11:30;7.90;99.90
16128;DHT22;8168;49.036;7.690;2023-02-02T14:19:58;8.00;99.90
16128;DHT22;8168;49.036;7.690;2023-02-02T14:28:08;8.00;99.90
16128;DHT22;8168;49.036;7.690;2023-02-02T14:30:39;7.90;99.90
16128;DHT22;8168;49.036;7.690;2023-02-02T14:33:22;8.00;99.90
16128;DHT22;8168;49.036;7.690;2023-02-02T14:35:57;7.90;99.90
16128;DHT22;8168;49.036;7.690;2023-02-02T14:44:10;8.00;99.90
16128;DHT22;8168;49.036;7.690;2023-02-02T14:46:41;8.00;99.90
16128;DHT22;8168;49.036;7.690;2023-02-02T14:49:22;8.00;99.90
16128;DHT22;8168;49.036;7.690;2023-02-02T14:51:58;8.00;99.90
16128;DHT22;8168;49.036;7.690;2023-02-02T14:54:36;8.00;99.90
16128;DHT22;8168;49.036;7.690;2023-02-02T14:57:24;7.90;99.90
16128;DHT22;8168;49.036;7.690;2023-02-02T14:59:56;8.00;99.90
16128;DHT22;8168;49.036;7.690;2023-02-02T15:02:35;7.90;99.90
16128;DHT22;8168;49.036;7.690;2023-02-02T15:13:32;7.90;99.90
16128;DHT22;8168;49.036;7.690;2023-02-02T15:16:27;7.80;99.90
16128;DHT22;8168;49.036;7.690;2023-02-02T15:19:16;7.80;99.90
16128;DHT22;8168;49.036;7.690;2023-02-02T15:21:53;7.80;99.90
16128;DHT22;8168;49.036;7.690;2023-02-02T15:24:26;7.80;99.90
16128;DHT22;8168;49.036;7.690;2023-02-02T15:26:59;7.70;99.90
16128;DHT22;8168;49.036;7.690;2023-02-02T15:29:44;7.70;99.90
16128;DHT22;8168;49.036;7.690;2023-02-02T15:32:21;7.70;99.90
16128;DHT22;8168;49.036;7.690;2023-02-02T15:34:58;7.60;99.90
16128;DHT22;8168;49.036;7.690;2023-02-02T15:37:35;7.60;99.90
16128;DHT22;8168;49.036;7.690;2023-02-02T15:40:14;7.60;99.90
16128;DHT22;8168;49.036;7.690;2023-02-02T15:42:49;7.60;99.90
16128;DHT22;8168;49.036;7.690;2023-02-02T15:45:53;7.60;99.90
16128;DHT22;8168;49.036;7.690;2023-02-02T15:48:28;7.50;99.90
16128;DHT22;8168;49.036;7.690;2023-02-02T15:51:02;7.50;99.90
16128;DHT22;8168;49.036;7.690;2023-02-02T15:58:58;7.40;99.90
16128;DHT22;8168;49.036;7.690;2023-02-02T16:01:30;7.40;99.90
16128;DHT22;8168;49.036;7.690;2023-02-02T16:04:16;7.40;99.90
16128;DHT22;8168;49.036;7.690;2023-02-02T16:06:49;7.40;99.90
16128;DHT22;8168;49.036;7.690;2023-02-02T16:09:26;7.30;99.90
16128;DHT22;8168;49.036;7.690;2023-02-02T16:11:58;7.30;99.90
16128;DHT22;8168;49.036;7.690;2023-02-02T16:14:29;7.40;99.90
16128;DHT22;8168;49.036;7.690;2023-02-02T16:17:19;7.30;99.90
16128;DHT22;8168;49.036;7.690;2023-02-02T16:20:02;7.60;99.90
16128;DHT22;8168;49.036;7.690;2023-02-02T16:22:38;7.30;99.90
16128;DHT22;8168;49.036;7.690;2023-02-02T16:25:15;7.30;99.90
16128;DHT22;8168;49.036;7.690;2023-02-02T16:27:46;7.30;99.90
16128;DHT22;8168;49.036;7.690;2023-02-02T16:30:27;7.30;99.90
16128;DHT22;8168;49.036;7.690;2023-02-02T16:32:58;7.70;99.90
16128;DHT22;8168;49.036;7.690;2023-02-02T16:35:34;7.30;99.90
16128;DHT22;8168;49.036;7.690;2023-02-02T16:38:24;7.30;99.90
16128;DHT22;8168;49.036;7.690;2023-02-02T16:43:36;7.30;99.90
16128;DHT22;8168;49.036;7.690;2023-02-02T16:46:12;7.40;99.90
16128;DHT22;8168;49.036;7.690;2023-02-02T16:48:58;7.20;99.90
16128;DHT22;8168;49.036;7.690;2023-02-02T16:51:31;7.20;99.90
16128;DHT22;8168;49.036;7.690;2023-02-02T16:56:58;7.20;99.90
16128;DHT22;8168;49.036;7.690;2023-02-02T16:59:32;7.20;99.90
16128;DHT22;8168;49.036;7.690;2023-02-02T17:02:23;7.10;99.90
16128;DHT22;8168;49.036;7.690;2023-02-02T17:05:20;7.10;99.90
16128;DHT22;8168;49.036;7.690;2023-02-02T17:07:56;7.10;99.90
16128;DHT22;8168;49.036;7.690;2023-02-02T17:10:38;7.10;99.90
16128;DHT22;8168;49.036;7.690;2023-02-02T17:16:00;7.10;99.90
16128;DHT22;8168;49.036;7.690;2023-02-02T17:18:31;7.10;99.90
16128;DHT22;8168;49.036;7.690;2023-02-02T17:21:02;7.10;99.90
16128;DHT22;8168;49.036;7.690;2023-02-02T17:23:36;7.10;99.90
16128;DHT22;8168;49.036;7.690;2023-02-02T17:26:10;7.10;99.90
16128;DHT22;8168;49.036;7.690;2023-02-02T17:28:42;7.10;99.90
16128;DHT22;8168;49.036;7.690;2023-02-02T17:31:14;7.10;99.90
16128;DHT22;8168;49.036;7.690;2023-02-02T17:33:45;7.00;99.90
16128;DHT22;8168;49.036;7.690;2023-02-02T17:36:16;7.10;99.90
16128;DHT22;8168;49.036;7.690;2023-02-02T17:38:46;7.10;99.90
16128;DHT22;8168;49.036;7.690;2023-02-02T17:41:17;7.10;99.90
16128;DHT22;8168;49.036;7.690;2023-02-02T17:43:47;7.10;99.90
16128;DHT22;8168;49.036;7.690;2023-02-02T17:46:18;7.10;99.90
16128;DHT22;8168;49.036;7.690;2023-02-02T17:48:48;7.10;99.90
16128;DHT22;8168;49.036;7.690;2023-02-02T17:51:19;7.10;99.90
16128;DHT22;8168;49.036;7.690;2023-02-02T17:53:50;7.10;99.90
16128;DHT22;8168;49.036;7.690;2023-02-02T17:56:21;7.10;99.90
16128;DHT22;8168;49.036;7.690;2023-02-02T17:58:52;7.10;99.90
16128;DHT22;8168;49.036;7.690;2023-02-02T18:01:22;7.10;99.90
16128;DHT22;8168;49.036;7.690;2023-02-02T18:03:53;7.10;99.90
16128;DHT22;8168;49.036;7.690;2023-02-02T18:06:24;7.10;99.90
16128;DHT22;8168;49.036;7.690;2023-02-02T18:08:55;7.10;99.90
16128;DHT22;8168;49.036;7.690;2023-02-02T18:11:25;7.10;99.90
16128;DHT22;8168;49.036;7.690;2023-02-02T18:13:56;7.10;99.90
16128;DHT22;8168;49.036;7.690;2023-02-02T18:16:27;7.00;99.90
16128;DHT22;8168;49.036;7.690;2023-02-02T18:18:57;7.10;99.90
16128;DHT22;8168;49.036;7.690;2023-02-02T18:24:01;7.00;99.90
16128;DHT22;8168;49.036;7.690;2023-02-02T18:26:32;7.00;99.90
16128;DHT22;8168;49.036;7.690;2023-02-02T18:29:03;7.00;99.90
16128;DHT22;8168;49.036;7.690;2023-02-02T18:31:34;7.00;99.90
16128;DHT22;8168;49.036;7.690;2023-02-02T18:34:05;7.00;99.90
16128;DHT22;8168;49.036;7.690;2023-02-02T18:36:36;7.10;99.90
16128;DHT22;8168;49.036;7.690;2023-02-02T18:39:06;7.10;99.90
16128;DHT22;8168;49.036;7.690;2023-02-02T18:41:38;7.10;99.90
16128;DHT22;8168;49.036;7.690;2023-02-02T18:44:09;7.50;99.90
16128;DHT22;8168;49.036;7.690;2023-02-02T18:46:39;7.10;99.90
16128;DHT22;8168;49.036;7.690;2023-02-02T18:49:10;7.10;99.90
16128;DHT22;8168;49.036;7.690;2023-02-02T18:51:41;7.10;99.90
16128;DHT22;8168;49.036;7.690;2023-02-02T18:54:12;7.10;99.90
16128;DHT22;8168;49.036;7.690;2023-02-02T18:56:42;7.50;99.90
16128;DHT22;8168;49.036;7.690;2023-02-02T18:59:13;7.10;99.90
16128;DHT22;8168;49.036;7.690;2023-02-02T19:01:44;7.10;99.90
16128;DHT22;8168;49.036;7.690;2023-02-02T19:04:14;5.60;99.90
16128;DHT22;8168;49.036;7.690;2023-02-02T19:06:45;7.20;99.90
16128;DHT22;8168;49.036;7.690;2023-02-02T19:09:34;7.20;99.90
16128;DHT22;8168;49.036;7.690;2023-02-02T19:12:13;7.10;99.90
16128;DHT22;8168;49.036;7.690;2023-02-02T19:14:44;7.00;99.90
16128;DHT22;8168;49.036;7.690;2023-02-02T19:17:21;7.50;99.90
16128;DHT22;8168;49.036;7.690;2023-02-02T19:19:53;7.00;99.90
16128;DHT22;8168;49.036;7.690;2023-02-02T19:22:29;7.00;99.90
16128;DHT22;8168;49.036;7.690;2023-02-02T19:25:09;7.00;99.90
16128;DHT22;8168;49.036;7.690;2023-02-02T19:27:40;7.00;99.90
16128;DHT22;8168;49.036;7.690;2023-02-02T19:30:21;7.40;99.90
16128;DHT22;8168;49.036;7.690;2023-02-02T19:32:52;7.00;99.90
16128;DHT22;8168;49.036;7.690;2023-02-02T19:35:23;7.00;99.90
16128;DHT22;8168;49.036;7.690;2023-02-02T19:37:59;7.00;99.90
16128;DHT22;8168;49.036;7.690;2023-02-02T19:40:32;7.00;99.90
16128;DHT22;8168;49.036;7.690;2023-02-02T19:45:44;7.20;99.90
16128;DHT22;8168;49.036;7.690;2023-02-02T19:48:19;6.90;99.90
16128;DHT22;8168;49.036;7.690;2023-02-02T19:50:53;6.90;99.90
16128;DHT22;8168;49.036;7.690;2023-02-02T19:53:34;7.00;99.90
16128;DHT22;8168;49.036;7.690;2023-02-02T19:56:26;6.90;99.90
16128;DHT22;8168;49.036;7.690;2023-02-02T19:58:58;7.00;99.90
16128;DHT22;8168;49.036;7.690;2023-02-02T20:01:32;6.90;99.90
16128;DHT22;8168;49.036;7.690;2023-02-02T20:04:18;6.90;99.90
16128;DHT22;8168;49.036;7.690;2023-02-02T20:06:49;7.00;99.90